WetterOnline ( https://www.wetteronline.de )

Wetter aktuell Duisburg

Aktuelles Wetter: Essen (161m)

6-stündlich | Neueste Meldungen
Ortszeit Temperatur Wetter
Sa, 02.07. 14:00 22.7° C fast wolkenlos
Sa, 02.07. 8:00 15.4° C wolkenlos
Sa, 02.07. 2:00 13.1° C wolkenlos
Fr, 01.07. 20:00 20.0° C leicht bewölkt
Fr, 01.07. 14:00 18.9° C wolkig
Fr, 01.07. 8:00 13.0° C bedeckt
Fr, 01.07. 2:00 13.3° C bedeckt
Do, 30.06. 20:00 16.8° C Regen
Ortszeit Temperatur Wetter
Sa, 02.07. 15:00 22.2° C wolkig
Sa, 02.07. 14:50 22.2° C wolkig
Sa, 02.07. 14:40 22.7° C bedeckt
Sa, 02.07. 14:30 22.9° C bewölkt
Sa, 02.07. 14:20 22.9° C bewölkt
Sa, 02.07. 14:10 22.5° C leicht bewölkt
Sa, 02.07. 14:00 22.7° C fast wolkenlos
Sa, 02.07. 13:30 22.0° C fast wolkenlos
Sa, 02.07. 13:00 21.5° C wolkenlos
Sa, 02.07. 12:30 21.2° C wolkenlos
Sa, 02.07. 12:00 20.8° C leicht bewölkt
Ortszeit Relative Feuchte Sichtweite
Sa, 02.07. 14:00 47% 65 km
Sa, 02.07. 8:00 74% 40 km
Sa, 02.07. 2:00 89% 40 km
Fr, 01.07. 20:00 47% 55 km
Fr, 01.07. 14:00 61% >70 km
Fr, 01.07. 8:00 94% 21 km
Fr, 01.07. 2:00 96% 12 km
Do, 30.06. 20:00 97% 7 km
Ortszeit Relative Feuchte Sichtweite
Sa, 02.07. 15:00 47% 50 km
Sa, 02.07. 14:50 47% -
Sa, 02.07. 14:40 46% -
Sa, 02.07. 14:30 49% 40 km
Sa, 02.07. 14:20 49% -
Sa, 02.07. 14:10 45% -
Sa, 02.07. 14:00 47% 65 km
Sa, 02.07. 13:30 45% 35 km
Sa, 02.07. 13:00 42% 60 km
Sa, 02.07. 12:30 44% >70 km
Sa, 02.07. 12:00 46% 65 km
Ortszeit Niederschlagsmenge Niederschlagsart
Sa, 02.07. 14:00 0.0 l/m2 in 6 Std. -
Sa, 02.07. 8:00 0.0 l/m2 in 12 Std. -
Sa, 02.07. 2:00 0.0 l/m2 in 6 Std. -
Fr, 01.07. 20:00 0.0 l/m2 in 12 Std. -
Fr, 01.07. 14:00 0.0 l/m2 in 6 Std. -
Fr, 01.07. 8:00 3 l/m2 in 12 Std. -
Fr, 01.07. 2:00 3 l/m2 in 6 Std. Regen
Do, 30.06. 20:00 8 l/m2 in 12 Std. Regen, Niederschlag
Ortszeit Niederschlagsmenge Niederschlagsart
Sa, 02.07. 15:00 0.0 l/m2 in 1 Std. -
Sa, 02.07. 14:50 keine Meldung -
Sa, 02.07. 14:40 keine Meldung -
Sa, 02.07. 14:30 0.0 l/m2 in 1 Std. -
Sa, 02.07. 14:20 keine Meldung -
Sa, 02.07. 14:10 keine Meldung -
Sa, 02.07. 14:00 0.0 l/m2 in 1 Std. -
Sa, 02.07. 13:30 0.0 l/m2 in 1 Std. -
Sa, 02.07. 13:00 0.0 l/m2 in 1 Std. -
Sa, 02.07. 12:30 0.0 l/m2 in 1 Std. -
Sa, 02.07. 12:00 0.0 l/m2 in 1 Std. -
Ortszeit Stärke Spitze Richtung
km/h Bft. km/h Grad Sektor
Sa, 02.07. 14:00 11 2 28 160° S
Sa, 02.07. 8:00 7 2 14 180° S
Sa, 02.07. 2:00 4 1 25 110° O
Fr, 01.07. 20:00 11 2 32 240° SW
Fr, 01.07. 14:00 11 2 29 240° SW
Fr, 01.07. 8:00 11 2 22 240° SW
Fr, 01.07. 2:00 13 3 46 240° SW
Do, 30.06. 20:00 18 3 50 270° W
Ortszeit Stärke Spitze Richtung
km/h Bft. km/h Grad Sektor
Sa, 02.07. 15:00 13 3 35 130° SO
Sa, 02.07. 14:50 13 3 - 130° SO
Sa, 02.07. 14:40 13 3 - 180° S
Sa, 02.07. 14:30 17 3 35 150° SO
Sa, 02.07. 14:20 17 3 - 150° SO
Sa, 02.07. 14:10 14 3 - 170° S
Sa, 02.07. 14:00 11 2 26 160° S
Sa, 02.07. 13:30 15 3 26 170° S
Sa, 02.07. 13:00 11 2 29 170° S
Sa, 02.07. 12:30 11 2 29 180° S
Sa, 02.07. 12:00 13 3 26 200° S
Ortszeit Untergrenze Bedeckung Gattung
total tief tief mittel hoch
Sa, 02.07. 14:00 6900 m 1/8 1/8 - - -
Sa, 02.07. 8:00 - 0/8 0/8 - - -
Sa, 02.07. 2:00 - 0/8 0/8 - - -
Fr, 01.07. 20:00 1500 m 2/8 2/8 - - -
Fr, 01.07. 14:00 1020 m 6/8 6/8 - - -
Fr, 01.07. 8:00 240 m 8/8 8/8 - - -
Fr, 01.07. 2:00 150 m 8/8 8/8 - - -
Do, 30.06. 20:00 150 m 7/8 7/8 - - -
Ortszeit Bedeckungsgrad in Achtel und Wolkenuntergrenze
Sa, 02.07. 15:00 3(1800m) 7(6600m) 7(9000m)
Sa, 02.07. 14:50 3(1800m) 7(6600m) 7(9000m)
Sa, 02.07. 14:40 8
Sa, 02.07. 14:30 6(6900m) 7(9000m)
Sa, 02.07. 14:20 6(6900m) 7(9000m)
Sa, 02.07. 14:10 4
Sa, 02.07. 14:00 1(6900m)
Sa, 02.07. 13:30 1(1500m)
Sa, 02.07. 13:00 keine Wolken
Sa, 02.07. 12:30 keine Wolken
Sa, 02.07. 12:00 3(1500m)
Ortszeit Luftdruck NN (hPa) Tendenz (hPa in 3 Std.)
Sa, 02.07. 14:00 1021 - 1,4
Sa, 02.07. 8:00 1023 + 0,4
Sa, 02.07. 2:00 1023 + 0,7
Fr, 01.07. 20:00 1020 + 0,6
Fr, 01.07. 14:00 1018 + 0,1
Fr, 01.07. 8:00 1017 + 0,2
Fr, 01.07. 2:00 1016 + 1,4
Do, 30.06. 20:00 1010 + 0,7
Ortszeit Luftdruck NN (hPa) Tendenz (hPa in 3 Std.)
Sa, 02.07. 15:00 1021 - 1,6
Sa, 02.07. 14:50 1021 keine Meldung
Sa, 02.07. 14:40 1021 keine Meldung
Sa, 02.07. 14:30 1021 - 1,4
Sa, 02.07. 14:20 1021 keine Meldung
Sa, 02.07. 14:10 1021 keine Meldung
Sa, 02.07. 14:00 1021 - 1,4
Sa, 02.07. 13:30 1022 - 1,2
Sa, 02.07. 13:00 1022 - 0,9
Sa, 02.07. 12:30 1022 - 0,7
Sa, 02.07. 12:00 1022 - 0,5
Ortszeit Schneehöhe (cm)
Sa, 02.07. 14:00 0
Sa, 02.07. 8:00 0
Sa, 02.07. 2:00 0
Fr, 01.07. 20:00 0
Fr, 01.07. 14:00 0
Fr, 01.07. 8:00 0
Fr, 01.07. 2:00 0
Do, 30.06. 20:00 0
Ortszeit Schneehöhe (cm)
Sa, 02.07. 15:00 -
Sa, 02.07. 14:50 0
Sa, 02.07. 14:40 0
Sa, 02.07. 14:30 0
Sa, 02.07. 14:20 0
Sa, 02.07. 14:10 -
Sa, 02.07. 14:00 0
Sa, 02.07. 13:30 -
Sa, 02.07. 13:00 0
Sa, 02.07. 12:30 -
Sa, 02.07. 12:00 0
Link zu dieser Seite / Seite empfehlen

Das Wetter in ...